Time;durP1;ratioP1;P1;durP2;ratioP2;P2;SDS_P1;SDS_P2;PMS_P1;PMS_P2;Temp;Humidity;BMP_temperature;BMP_pressure;BME280_temperature;BME280_humidity;BME280_pressure;Samples;Min_cycle;Max_cycle;Signal;HPM_P1;HPM_P2
2024/04/12 00:01:00;;;;;;;15.75;12.07;;;;;;;;;;5486751;26;20017;-56
2024/04/12 00:03:26;;;;;;;15.73;11.85;;;;;;;;;;5485699;26;20002;-57
2024/04/12 00:06:00;;;;;;;17.65;10.95;;;;;;;;;;5486199;26;20365;-55
2024/04/12 00:08:28;;;;;;;15.68;11.38;;;;;;;;;;5486905;26;19999;-58
2024/04/12 00:10:59;;;;;;;18.85;12.52;;;;;;;;;;5486721;26;20331;-55
2024/04/12 00:13:26;;;;;;;16.88;12.23;;;;;;;;;;5486171;26;20155;-53
2024/04/12 00:15:58;;;;;;;16.48;12.40;;;;;;;;;;5486198;26;20034;-58
2024/04/12 00:18:26;;;;;;;15.23;13.00;;;;;;;;;;5486476;26;19994;-58
2024/04/12 00:21:01;;;;;;;18.08;13.65;;;;;;;;;;5486391;26;19994;-57
2024/04/12 00:23:27;;;;;;;18.48;13.13;;;;;;;;;;5485827;26;20046;-56
2024/04/12 00:25:59;;;;;;;18.33;12.27;;;;;;;;;;5486168;26;20010;-56
2024/04/12 00:28:26;;;;;;;16.50;12.48;;;;;;;;;;5486074;26;20030;-56
2024/04/12 00:30:59;;;;;;;18.25;13.02;;;;;;;;;;5485911;26;20010;-55
2024/04/12 00:33:31;;;;;;;14.32;11.48;;;;;;;;;;5489210;26;20078;-55
2024/04/12 00:36:12;;;;;;;16.70;11.40;;;;;;;;;;5484828;26;20105;-57
2024/04/12 00:38:38;;;;;;;;;;;;;;;;;;5490264;26;20329;-55
2024/04/12 00:41:11;;;;;;;17.83;12.75;;;;;;;;;;5481733;26;19924;-55
2024/04/12 00:43:45;;;;;;;16.08;12.18;;;;;;;;;;5489228;26;19994;-59
2024/04/12 00:46:18;;;;;;;15.73;11.77;;;;;;;;;;5488830;26;20018;-57
2024/04/12 00:48:45;;;;;;;19.25;11.88;;;;;;;;;;5489798;26;20073;-52
2024/04/12 00:51:18;;;;;;;17.02;11.80;;;;;;;;;;5489615;26;20006;-58
2024/04/12 00:53:46;;;;;;;17.17;12.88;;;;;;;;;;5489314;26;20009;-57
2024/04/12 00:56:16;;;;;;;17.05;13.18;;;;;;;;;;5489161;26;20006;-59
2024/04/12 00:58:43;;;;;;;14.85;11.60;;;;;;;;;;5490005;26;20333;-60
2024/04/12 01:01:15;;;;;;;16.58;11.65;;;;;;;;;;5489604;26;20034;-60
2024/04/12 01:03:46;;;;;;;16.88;11.50;;;;;;;;;;5489402;26;19994;-60
2024/04/12 01:06:21;;;;;;;13.70;11.70;;;;;;;;;;5489273;26;20074;-56
2024/04/12 01:08:51;;;;;;;17.35;12.85;;;;;;;;;;5489784;26;20096;-59
2024/04/12 01:11:21;;;;;;;14.95;11.27;;;;;;;;;;5474777;26;20074;-60
2024/04/12 01:13:47;;;;;;;15.83;11.90;;;;;;;;;;5489009;26;20551;-59
2024/04/12 01:16:17;;;;;;;14.30;11.68;;;;;;;;;;5489216;26;20520;-60
2024/04/12 01:18:43;;;;;;;15.88;11.70;;;;;;;;;;5489144;26;19998;-59
2024/04/12 01:21:14;;;;;;;17.13;12.00;;;;;;;;;;5488557;26;20079;-61
2024/04/12 01:23:44;;;;;;;18.52;12.88;;;;;;;;;;5489027;26;20017;-60
2024/04/12 01:26:17;;;;;;;17.05;12.65;;;;;;;;;;5489185;26;20020;-61
2024/04/12 01:28:44;;;;;;;17.33;12.00;;;;;;;;;;5488785;26;20418;-59
2024/04/12 01:31:15;;;;;;;16.63;12.15;;;;;;;;;;5488785;26;20017;-59
2024/04/12 01:33:42;;;;;;;17.08;13.05;;;;;;;;;;5489242;26;20013;-60
2024/04/12 01:36:17;;;;;;;15.32;12.38;;;;;;;;;;5488886;26;20457;-60
2024/04/12 01:38:45;;;;;;;17.85;12.40;;;;;;;;;;5480310;26;20345;-61
2024/04/12 01:41:20;;;;;;;16.85;12.10;;;;;;;;;;5486902;26;20060;-61
2024/04/12 01:43:52;;;;;;;18.27;12.13;;;;;;;;;;5486186;26;20010;-60
2024/04/12 01:46:26;;;;;;;16.05;11.70;;;;;;;;;;5487507;26;20080;-60
2024/04/12 01:48:52;;;;;;;17.02;11.52;;;;;;;;;;5487624;26;20014;-61
2024/04/12 01:51:23;;;;;;;15.48;11.95;;;;;;;;;;5487833;26;20070;-61
2024/04/12 01:53:54;;;;;;;;;;;;;;;;;;5489488;26;20012;-60
2024/04/12 01:56:25;;;;;;;;;;;;;;;;;;5488712;26;19924;-58
2024/04/12 01:58:51;;;;;;;14.50;10.73;;;;;;;;;;5488155;26;19931;-61
2024/04/12 02:01:21;;;;;;;15.80;10.48;;;;;;;;;;5488704;26;20002;-60
2024/04/12 02:03:47;;;;;;;15.48;10.60;;;;;;;;;;5488341;26;19994;-58
2024/04/12 02:06:17;;;;;;;12.85;10.60;;;;;;;;;;5488246;26;20592;-60
2024/04/12 02:08:44;;;;;;;16.23;11.47;;;;;;;;;;5488437;26;19998;-61
2024/04/12 02:11:13;;;;;;;14.77;10.68;;;;;;;;;;5488328;26;20030;-56
2024/04/12 02:13:42;;;;;;;18.13;10.82;;;;;;;;;;5488352;26;20051;-58
2024/04/12 02:16:13;;;;;;;13.10;9.43;;;;;;;;;;5487910;26;20051;-61
2024/04/12 02:18:41;;;;;;;13.48;10.43;;;;;;;;;;5488355;26;20009;-61
2024/04/12 02:21:10;;;;;;;14.75;10.10;;;;;;;;;;5488045;26;20010;-60
2024/04/12 02:23:37;;;;;;;16.75;10.95;;;;;;;;;;5487346;26;20009;-61
2024/04/12 02:26:08;;;;;;;12.65;10.10;;;;;;;;;;5487629;26;20403;-58
2024/04/12 02:28:36;;;;;;;15.07;11.63;;;;;;;;;;5488233;26;20012;-59
2024/04/12 02:31:10;;;;;;;14.52;10.95;;;;;;;;;;5488093;26;20030;-60
2024/04/12 02:33:37;;;;;;;13.10;10.35;;;;;;;;;;5487309;26;20014;-60
2024/04/12 02:36:11;;;;;;;15.93;11.30;;;;;;;;;;5487987;26;20002;-60
2024/04/12 02:38:38;;;;;;;16.00;11.45;;;;;;;;;;5488566;26;19994;-60
2024/04/12 02:41:13;;;;;;;15.02;11.40;;;;;;;;;;5487719;26;20006;-59
2024/04/12 02:43:40;;;;;;;12.70;9.73;;;;;;;;;;5487885;26;19998;-60
2024/04/12 02:46:13;;;;;;;14.52;10.55;;;;;;;;;;5487017;26;20332;-59
2024/04/12 02:48:40;;;;;;;13.15;9.65;;;;;;;;;;5487989;26;20014;-60
2024/04/12 02:51:12;;;;;;;13.15;10.35;;;;;;;;;;5487626;26;20009;-60
2024/04/12 02:53:39;;;;;;;15.95;10.40;;;;;;;;;;5487925;26;20325;-59
2024/04/12 02:56:11;;;;;;;15.27;9.95;;;;;;;;;;5487518;26;20109;-56
2024/04/12 02:58:39;;;;;;;15.20;9.90;;;;;;;;;;5487900;26;20006;-60
2024/04/12 03:01:11;;;;;;;12.27;9.32;;;;;;;;;;5487829;26;20345;-60
2024/04/12 03:03:41;;;;;;;13.90;9.65;;;;;;;;;;5487641;26;20010;-60
2024/04/12 03:06:10;;;;;;;13.50;9.43;;;;;;;;;;5487234;26;20013;-60
2024/04/12 03:08:38;;;;;;;14.07;9.50;;;;;;;;;;5487775;26;20006;-57
2024/04/12 03:11:14;;;;;;;11.23;8.95;;;;;;;;;;5487761;26;20319;-54
2024/04/12 03:13:41;;;;;;;12.50;9.27;;;;;;;;;;5487305;26;20017;-56
2024/04/12 03:16:16;;;;;;;12.88;10.10;;;;;;;;;;5487326;26;20025;-57
2024/04/12 03:18:44;;;;;;;15.70;10.68;;;;;;;;;;5487458;26;19998;-60
2024/04/12 03:21:15;;;;;;;13.88;10.75;;;;;;;;;;5487394;26;20023;-59
2024/04/12 03:23:43;;;;;;;15.65;11.95;;;;;;;;;;5486693;26;20394;-59
2024/04/12 03:26:16;;;;;;;25.23;16.73;;;;;;;;;;5487012;26;20013;-60
2024/04/12 03:28:45;;;;;;;21.58;14.73;;;;;;;;;;5487621;26;19998;-59
2024/04/12 03:31:17;;;;;;;23.40;15.30;;;;;;;;;;5487433;26;20018;-60
2024/04/12 03:33:44;;;;;;;22.95;15.30;;;;;;;;;;5487071;26;19999;-59
2024/04/12 03:36:26;;;;;;;22.13;14.82;;;;;;;;;;5486816;26;20013;-60
2024/04/12 03:39:24;;;;;;;21.52;14.80;;;;;;;;;;5487272;26;20009;-60
2024/04/12 03:41:43;;;;;;;23.25;14.52;;;;;;;;;;5486756;26;19994;-60
2024/04/12 03:44:09;;;;;;;22.83;13.57;;;;;;;;;;5486831;26;20426;-56
2024/04/12 03:46:41;;;;;;;22.20;14.38;;;;;;;;;;5486349;26;20033;-60
2024/04/12 03:49:13;;;;;;;21.17;12.95;;;;;;;;;;5487013;26;20333;-57
2024/04/12 03:51:44;;;;;;;26.65;14.65;;;;;;;;;;5486979;26;19998;-59
2024/04/12 03:54:12;;;;;;;21.88;13.57;;;;;;;;;;5486608;26;20030;-60
2024/04/12 03:56:40;;;;;;;18.35;14.18;;;;;;;;;;5486719;26;20013;-59
2024/04/12 03:59:06;;;;;;;21.55;14.95;;;;;;;;;;5486053;26;20347;-60
2024/04/12 04:01:36;;;;;;;20.65;13.95;;;;;;;;;;5486792;26;20055;-60
2024/04/12 04:04:10;;;;;;;18.92;13.02;;;;;;;;;;5486246;26;20014;-60
2024/04/12 04:06:39;;;;;;;17.63;12.00;;;;;;;;;;5486887;26;19999;-56
2024/04/12 04:09:05;;;;;;;16.77;11.85;;;;;;;;;;5490334;26;19995;-60
2024/04/12 04:11:34;;;;;;;16.95;11.50;;;;;;;;;;5490160;26;20662;-57
2024/04/12 04:14:08;;;;;;;17.38;10.90;;;;;;;;;;5489664;26;20010;-59
2024/04/12 04:16:38;;;;;;;17.15;11.65;;;;;;;;;;5489801;26;19998;-59
2024/04/12 04:19:12;;;;;;;16.13;11.27;;;;;;;;;;5490352;26;19998;-59
2024/04/12 04:21:41;;;;;;;14.52;10.63;;;;;;;;;;5490016;26;20009;-59
2024/04/12 04:24:08;;;;;;;12.90;10.00;;;;;;;;;;5489172;26;20099;-60
2024/04/12 04:26:37;;;;;;;12.25;9.40;;;;;;;;;;5490102;26;20017;-60
2024/04/12 04:29:09;;;;;;;11.75;8.82;;;;;;;;;;5489225;26;20075;-60
2024/04/12 04:31:47;;;;;;;18.48;11.57;;;;;;;;;;5489393;26;20402;-61
2024/04/12 04:34:17;;;;;;;15.77;11.18;;;;;;;;;;5489375;26;20505;-58
2024/04/12 04:36:48;;;;;;;15.02;9.95;;;;;;;;;;5489068;26;20002;-59
2024/04/12 04:39:15;;;;;;;16.40;10.13;;;;;;;;;;5490453;26;20421;-59
2024/04/12 04:41:46;;;;;;;13.68;9.88;;;;;;;;;;5489722;26;20023;-60
2024/04/12 04:44:14;;;;;;;15.95;10.05;;;;;;;;;;5490096;26;20006;-60
2024/04/12 04:46:44;;;;;;;12.30;8.80;;;;;;;;;;5489181;26;20398;-60
2024/04/12 04:49:12;;;;;;;12.95;7.82;;;;;;;;;;5489206;26;20006;-56
2024/04/12 04:51:43;;;;;;;10.65;7.32;;;;;;;;;;5489257;26;20353;-61
2024/04/12 04:54:11;;;;;;;10.35;6.88;;;;;;;;;;5488445;26;20071;-60
2024/04/12 04:56:42;;;;;;;10.15;6.85;;;;;;;;;;5488988;26;20002;-60
2024/04/12 04:59:08;;;;;;;8.32;6.15;;;;;;;;;;5489684;26;20013;-60
2024/04/12 05:01:37;;;;;;;8.60;6.40;;;;;;;;;;5489619;26;20016;-60
2024/04/12 05:04:03;;;;;;;8.65;5.88;;;;;;;;;;5489314;26;19999;-57
2024/04/12 05:06:33;;;;;;;9.13;6.40;;;;;;;;;;5489226;26;20093;-61
2024/04/12 05:09:03;;;;;;;9.43;6.28;;;;;;;;;;5489658;26;20006;-60
2024/04/12 05:11:32;;;;;;;10.07;6.88;;;;;;;;;;5489507;26;20405;-60
2024/04/12 05:14:06;;;;;;;10.85;7.90;;;;;;;;;;5488725;26;19994;-59
2024/04/12 05:16:35;;;;;;;9.18;6.57;;;;;;;;;;5488802;26;19998;-58
2024/04/12 05:19:08;;;;;;;9.93;6.70;;;;;;;;;;5487687;26;20014;-54
2024/04/12 05:21:38;;;;;;;10.10;6.97;;;;;;;;;;5489037;26;20314;-58
2024/04/12 05:24:09;;;;;;;;;;;;;;;;;;5488833;26;20012;-58
2024/04/12 05:26:41;;;;;;;9.57;7.38;;;;;;;;;;5488263;26;19924;-58
2024/04/12 05:29:09;;;;;;;10.85;7.82;;;;;;;;;;5488774;26;19998;-57
2024/04/12 05:31:37;;;;;;;16.95;9.75;;;;;;;;;;5488611;26;20002;-58
2024/04/12 05:34:05;;;;;;;18.70;12.77;;;;;;;;;;5488064;26;20013;-58
2024/04/12 05:36:36;;;;;;;18.33;11.68;;;;;;;;;;5488552;26;20449;-58
2024/04/12 05:39:08;;;;;;;20.45;13.30;;;;;;;;;;5488706;26;20480;-61
2024/04/12 05:41:44;;;;;;;19.88;13.90;;;;;;;;;;5488468;26;20006;-59
2024/04/12 05:44:11;;;;;;;21.88;14.23;;;;;;;;;;5488208;26;19998;-58
2024/04/12 05:46:42;;;;;;;20.58;13.98;;;;;;;;;;5488304;26;20044;-59
2024/04/12 05:49:11;;;;;;;21.05;13.77;;;;;;;;;;5487520;26;19995;-60
2024/04/12 05:51:40;;;;;;;17.50;12.70;;;;;;;;;;5487992;26;19999;-60
2024/04/12 05:54:10;;;;;;;15.90;12.15;;;;;;;;;;5488218;26;19998;-59
2024/04/12 05:56:42;;;;;;;17.73;10.65;;;;;;;;;;5488684;26;20006;-59
2024/04/12 05:59:13;;;;;;;16.15;10.50;;;;;;;;;;5489026;26;20006;-59
2024/04/12 06:01:43;;;;;;;;;;;;;;;;;;5489407;26;20341;-58
2024/04/12 06:04:11;;;;;;;15.57;9.57;;;;;;;;;;5488133;26;19985;-61
2024/04/12 06:06:42;;;;;;;11.52;8.48;;;;;;;;;;5487314;26;20050;-61
2024/04/12 06:09:19;;;;;;;14.45;10.07;;;;;;;;;;5472183;26;20326;-57
2024/04/12 06:11:52;;;;;;;13.00;9.38;;;;;;;;;;5464576;26;20338;-56
2024/04/12 06:14:20;;;;;;;14.48;10.88;;;;;;;;;;5474509;26;20306;-56
2024/04/12 06:16:51;;;;;;;14.93;10.13;;;;;;;;;;5475884;26;20007;-57
2024/04/12 06:19:17;;;;;;;;;;;;;;;;;;5474317;26;20016;-54
2024/04/12 06:21:48;;;;;;;14.45;10.82;;;;;;;;;;5488256;26;20013;-59
2024/04/12 06:24:16;;;;;;;15.70;10.77;;;;;;;;;;5487618;26;19994;-60
2024/04/12 06:26:47;;;;;;;16.15;11.00;;;;;;;;;;5488084;26;20508;-61
2024/04/12 06:29:16;;;;;;;14.60;10.88;;;;;;;;;;5487748;26;20318;-61
2024/04/12 06:31:49;;;;;;;14.48;9.57;;;;;;;;;;5487316;26;20012;-62
2024/04/12 06:34:17;;;;;;;14.48;10.00;;;;;;;;;;5473576;26;20013;-62
2024/04/12 06:36:55;;;;;;;15.70;10.75;;;;;;;;;;5486884;26;20086;-59
2024/04/12 06:39:26;;;;;;;16.63;10.65;;;;;;;;;;5486044;26;19998;-61
2024/04/12 06:41:55;;;;;;;14.60;10.43;;;;;;;;;;5485989;26;20027;-61
2024/04/12 06:44:24;;;;;;;16.77;10.27;;;;;;;;;;5463021;26;20003;-57
2024/04/12 06:46:57;;;;;;;14.32;9.45;;;;;;;;;;5474237;26;19999;-58
2024/04/12 06:49:27;;;;;;;12.30;9.30;;;;;;;;;;5474621;26;20006;-61
2024/04/12 06:52:20;;;;;;;14.82;10.30;;;;;;;;;;5469859;26;20458;-61
2024/04/12 06:54:46;;;;;;;15.73;11.82;;;;;;;;;;5465105;26;19999;-61
2024/04/12 06:57:21;;;;;;;16.10;12.27;;;;;;;;;;5463598;26;20038;-58
2024/04/12 06:59:53;;;;;;;19.83;13.27;;;;;;;;;;5479674;26;19998;-59
2024/04/12 07:02:25;;;;;;;16.15;11.52;;;;;;;;;;5474565;26;20013;-62
2024/04/12 07:04:52;;;;;;;17.83;12.80;;;;;;;;;;5487487;26;20062;-59
2024/04/12 07:07:22;;;;;;;21.23;14.52;;;;;;;;;;5487534;26;19998;-60
2024/04/12 07:09:50;;;;;;;20.13;12.57;;;;;;;;;;5487511;26;20497;-61
2024/04/12 07:12:19;;;;;;;15.02;10.82;;;;;;;;;;5487980;26;19999;-60
2024/04/12 07:14:46;;;;;;;15.02;10.65;;;;;;;;;;5487377;26;20026;-59
2024/04/12 07:17:23;;;;;;;14.05;10.13;;;;;;;;;;5486909;26;20482;-60
2024/04/12 07:19:50;;;;;;;15.07;10.85;;;;;;;;;;5487591;26;19998;-61
2024/04/12 07:22:22;;;;;;;14.25;10.73;;;;;;;;;;5487325;26;20006;-62
2024/04/12 07:24:50;;;;;;;13.55;10.23;;;;;;;;;;5487368;26;20014;-60
2024/04/12 07:27:22;;;;;;;12.20;9.43;;;;;;;;;;5486292;26;20006;-62
2024/04/12 07:29:49;;;;;;;13.70;8.93;;;;;;;;;;5487509;26;20002;-62
2024/04/12 07:32:22;;;;;;;14.20;8.63;;;;;;;;;;5487171;26;20370;-61
2024/04/12 07:34:48;;;;;;;12.30;9.75;;;;;;;;;;5487215;26;20009;-61
2024/04/12 07:37:26;;;;;;;12.15;8.93;;;;;;;;;;5487457;26;20006;-61
2024/04/12 07:40:15;;;;;;;12.00;8.82;;;;;;;;;;5473087;26;20211;-62
2024/04/12 07:42:46;;;;;;;12.98;8.88;;;;;;;;;;5468466;26;20010;-60
2024/04/12 07:45:17;;;;;;;12.80;8.93;;;;;;;;;;5476039;26;20029;-61
2024/04/12 07:47:56;;;;;;;12.85;9.27;;;;;;;;;;5471759;26;20014;-61
2024/04/12 07:50:29;;;;;;;12.90;8.85;;;;;;;;;;5476354;26;20015;-58
2024/04/12 07:53:10;;;;;;;12.05;8.75;;;;;;;;;;5486424;26;20002;-61
2024/04/12 07:55:37;;;;;;;14.48;9.95;;;;;;;;;;5486432;26;20013;-60
2024/04/12 07:58:08;;;;;;;12.65;8.48;;;;;;;;;;5487277;26;20034;-61
2024/04/12 08:00:42;;;;;;;15.02;8.68;;;;;;;;;;5486706;26;20472;-62
2024/04/12 08:03:15;;;;;;;14.70;9.23;;;;;;;;;;5481690;26;19999;-62
2024/04/12 08:05:59;;;;;;;13.40;9.05;;;;;;;;;;5467625;26;20006;-62
2024/04/12 08:08:31;;;;;;;14.10;8.70;;;;;;;;;;5476262;26;20293;-60
2024/04/12 08:11:10;;;;;;;14.43;9.60;;;;;;;;;;5468647;26;20100;-61
2024/04/12 08:13:44;;;;;;;12.40;7.85;;;;;;;;;;5463427;26;20009;-64
2024/04/12 08:16:14;;;;;;;12.25;8.57;;;;;;;;;;5468423;26;20013;-66
2024/04/12 08:18:46;;;;;;;13.02;8.05;;;;;;;;;;5475020;26;20002;-61
2024/04/12 08:21:12;;;;;;;13.20;7.78;;;;;;;;;;5468348;26;20439;-58
2024/04/12 08:23:43;;;;;;;12.45;8.23;;;;;;;;;;5479010;26;19998;-59
2024/04/12 08:26:11;;;;;;;11.88;8.25;;;;;;;;;;5472146;26;20473;-63
2024/04/12 08:28:41;;;;;;;14.52;9.27;;;;;;;;;;5473367;26;20538;-61
2024/04/12 08:31:10;;;;;;;13.38;8.35;;;;;;;;;;5481534;26;20021;-62
2024/04/12 08:33:40;;;;;;;17.95;11.30;;;;;;;;;;5469004;26;20514;-60
2024/04/12 08:36:14;;;;;;;29.65;16.30;;;;;;;;;;5472281;26;20021;-66
2024/04/12 08:38:54;;;;;;;53.17;27.02;;;;;;;;;;5475307;26;20095;-58
2024/04/12 08:41:23;;;;;;;16.88;9.35;;;;;;;;;;5471800;26;20014;-60
2024/04/12 08:43:58;;;;;;;12.00;8.18;;;;;;;;;;5465960;26;20128;-59
2024/04/12 08:46:28;;;;;;;17.50;10.95;;;;;;;;;;5481698;26;20017;-59
2024/04/12 08:48:57;;;;;;;13.77;9.15;;;;;;;;;;5481621;26;20009;-59
2024/04/12 08:51:32;;;;;;;19.42;9.35;;;;;;;;;;5478130;26;20006;-59
2024/04/12 08:54:04;;;;;;;13.35;9.05;;;;;;;;;;5482427;26;20025;-59
2024/04/12 08:56:30;;;;;;;11.35;7.85;;;;;;;;;;5473434;26;20124;-60
2024/04/12 08:59:05;;;;;;;11.23;7.18;;;;;;;;;;5469264;26;20007;-59
2024/04/12 09:01:32;;;;;;;11.00;8.23;;;;;;;;;;5470244;26;20446;-57
2024/04/12 09:04:13;;;;;;;14.32;8.63;;;;;;;;;;5484052;26;20410;-59
2024/04/12 09:06:41;;;;;;;11.57;8.63;;;;;;;;;;5474834;26;20461;-58
2024/04/12 09:09:13;;;;;;;12.23;8.35;;;;;;;;;;5478582;26;19999;-60
2024/04/12 09:11:39;;;;;;;11.15;8.15;;;;;;;;;;5478560;26;20013;-58
2024/04/12 09:14:19;;;;;;;12.80;8.88;;;;;;;;;;5474079;26;20283;-59
2024/04/12 09:16:48;;;;;;;11.02;8.77;;;;;;;;;;5484287;26;20017;-60
2024/04/12 09:19:18;;;;;;;10.85;8.15;;;;;;;;;;5487005;26;19994;-57
2024/04/12 09:21:55;;;;;;;11.18;8.02;;;;;;;;;;5488387;26;19998;-58
2024/04/12 09:24:31;;;;;;;12.25;8.60;;;;;;;;;;5474665;26;19994;-58
2024/04/12 09:26:58;;;;;;;11.63;8.65;;;;;;;;;;5485477;26;20457;-58
2024/04/12 09:29:29;;;;;;;12.30;8.25;;;;;;;;;;5476967;26;20010;-60
2024/04/12 09:34:46;;;;;;;12.35;8.05;;;;;;;;;;5472716;26;20008;-59
2024/04/12 09:37:38;;;;;;;12.60;8.88;;;;;;;;;;5487872;26;19999;-61
2024/04/12 09:40:16;;;;;;;13.25;8.40;;;;;;;;;;5485542;26;20013;-59
2024/04/12 09:43:05;;;;;;;11.95;8.23;;;;;;;;;;5484611;26;20075;-59
2024/04/12 09:45:45;;;;;;;10.68;7.55;;;;;;;;;;5476016;26;20009;-59
2024/04/12 10:38:14;;;;;;;14.57;9.23;;;;;;;;;;5486710;26;20349;-54
2024/04/12 10:40:43;;;;;;;11.45;8.65;;;;;;;;;;5478475;26;20454;-58
2024/04/12 10:43:15;;;;;;;13.98;8.98;;;;;;;;;;5467602;26;20014;-61
2024/04/12 10:45:48;;;;;;;11.38;8.50;;;;;;;;;;5479526;26;20037;-59
2024/04/12 10:48:21;;;;;;;11.52;8.68;;;;;;;;;;5484764;26;20006;-61
2024/04/12 10:50:48;;;;;;;13.18;8.75;;;;;;;;;;5485672;26;20353;-60
2024/04/12 10:53:17;;;;;;;12.38;9.55;;;;;;;;;;5488294;26;20021;-61
2024/04/12 10:55:44;;;;;;;12.60;9.18;;;;;;;;;;5494354;26;20361;-61
2024/04/12 10:58:16;;;;;;;13.35;8.93;;;;;;;;;;5486618;26;20013;-59
2024/04/12 11:00:47;;;;;;;11.63;9.07;;;;;;;;;;5483450;26;20012;-60
2024/04/12 11:03:17;;;;;;;12.50;9.35;;;;;;;;;;5487024;26;20101;-61
2024/04/12 11:05:47;;;;;;;13.80;8.88;;;;;;;;;;5488285;26;20002;-58
2024/04/12 11:08:15;;;;;;;11.55;7.80;;;;;;;;;;5487840;26;20453;-60
2024/04/12 11:10:54;;;;;;;13.05;8.93;;;;;;;;;;5484197;26;20078;-61
2024/04/12 11:13:35;;;;;;;12.43;9.13;;;;;;;;;;5481723;26;19999;-61
2024/04/12 11:32:42;;;;;;;11.10;8.38;;;;;;;;;;5482912;26;20074;-61
2024/04/12 11:35:15;;;;;;;14.40;9.30;;;;;;;;;;5486934;26;20002;-61
2024/04/12 11:37:45;;;;;;;12.38;8.63;;;;;;;;;;5474241;26;20002;-61
2024/04/12 11:40:16;;;;;;;;;;;;;;;;;;5486458;26;20013;-61
2024/04/12 11:42:48;;;;;;;12.50;8.63;;;;;;;;;;5471778;26;19928;-61
2024/04/12 11:45:17;;;;;;;10.63;7.93;;;;;;;;;;5485431;26;20297;-60
2024/04/12 11:47:47;;;;;;;11.13;9.23;;;;;;;;;;5486585;26;19994;-60
2024/04/12 11:50:13;;;;;;;11.80;8.85;;;;;;;;;;5486685;26;20024;-60
2024/04/12 11:52:42;;;;;;;13.63;8.70;;;;;;;;;;5479652;26;20066;-59
2024/04/12 11:55:08;;;;;;;15.48;8.80;;;;;;;;;;5486595;26;20449;-62
2024/04/12 11:57:40;;;;;;;12.00;8.88;;;;;;;;;;5486554;26;20083;-61
2024/04/12 12:00:09;;;;;;;13.93;9.48;;;;;;;;;;5486352;26;19994;-60
2024/04/12 12:02:43;;;;;;;13.48;9.05;;;;;;;;;;5481989;26;20014;-62
2024/04/12 12:05:09;;;;;;;12.40;8.95;;;;;;;;;;5478647;26;20017;-57
2024/04/12 12:07:37;;;;;;;12.52;9.75;;;;;;;;;;5478935;26;20021;-59
2024/04/12 12:10:08;;;;;;;15.35;9.65;;;;;;;;;;5474136;26;20015;-56
2024/04/12 12:12:37;;;;;;;13.38;10.30;;;;;;;;;;5477806;26;20002;-61
2024/04/12 12:15:06;;;;;;;13.15;9.20;;;;;;;;;;5485789;26;19994;-58
2024/04/12 12:17:34;;;;;;;12.75;9.70;;;;;;;;;;5482758;26;20010;-60
2024/04/12 12:20:07;;;;;;;11.32;9.80;;;;;;;;;;5485190;26;20013;-58
2024/04/12 12:22:33;;;;;;;13.23;9.43;;;;;;;;;;5473019;26;20064;-59
2024/04/12 12:25:02;;;;;;;14.50;10.38;;;;;;;;;;5473652;26;20080;-59
2024/04/12 12:27:28;;;;;;;14.68;9.68;;;;;;;;;;5483669;26;20078;-59
2024/04/12 12:29:56;;;;;;;14.45;10.07;;;;;;;;;;5489781;26;20009;-59
2024/04/12 12:32:31;;;;;;;11.18;8.75;;;;;;;;;;5480025;26;20353;-59
2024/04/12 12:35:00;;;;;;;10.25;8.02;;;;;;;;;;5487947;26;20002;-59
2024/04/12 12:37:28;;;;;;;13.68;8.60;;;;;;;;;;5480708;26;20074;-63
2024/04/12 12:39:59;;;;;;;13.68;10.50;;;;;;;;;;5474368;26;20509;-59
2024/04/12 12:42:25;;;;;;;14.18;9.20;;;;;;;;;;5474914;26;20012;-65
2024/04/12 12:44:56;;;;;;;14.20;10.35;;;;;;;;;;5476672;26;20002;-63
2024/04/12 12:47:22;;;;;;;19.15;10.90;;;;;;;;;;5484377;26;20009;-65
2024/04/12 12:49:53;;;;;;;14.27;10.20;;;;;;;;;;5488295;26;20454;-59
2024/04/12 12:52:19;;;;;;;34.83;18.67;;;;;;;;;;5488828;26;20343;-59
2024/04/12 12:54:50;;;;;;;17.55;11.88;;;;;;;;;;5478876;26;20002;-57
2024/04/12 12:57:17;;;;;;;14.35;11.35;;;;;;;;;;5487841;26;20464;-59
2024/04/12 12:59:46;;;;;;;26.60;14.80;;;;;;;;;;5487945;26;19999;-56
2024/04/12 13:02:14;;;;;;;14.85;9.88;;;;;;;;;;5488932;26;19998;-57
2024/04/12 13:04:43;;;;;;;14.45;10.82;;;;;;;;;;5484457;26;20010;-59
2024/04/12 13:07:09;;;;;;;13.23;9.67;;;;;;;;;;5481787;26;19999;-59
2024/04/12 13:09:38;;;;;;;14.48;9.27;;;;;;;;;;5488974;26;20074;-57
2024/04/12 13:12:09;;;;;;;12.73;10.13;;;;;;;;;;5488859;26;20010;-58
2024/04/12 13:14:39;;;;;;;13.55;10.77;;;;;;;;;;5487860;26;20042;-57
2024/04/12 13:17:11;;;;;;;;;;;;;;;;;;5489465;26;20013;-57
2024/04/12 13:19:41;;;;;;;17.63;12.65;;;;;;;;;;5486844;26;19924;-58
2024/04/12 13:22:08;;;;;;;;;;;;;;;;;;5488083;26;20002;-57
2024/04/12 13:24:37;;;;;;;16.45;11.68;;;;;;;;;;5480649;26;19952;-58
2024/04/12 13:27:07;;;;;;;18.13;11.70;;;;;;;;;;5480514;26;20006;-57
2024/04/12 13:29:38;;;;;;;16.00;11.00;;;;;;;;;;5485404;26;20018;-58
2024/04/12 13:32:10;;;;;;;14.98;10.98;;;;;;;;;;5484516;26;20468;-58
2024/04/12 13:34:39;;;;;;;15.85;11.65;;;;;;;;;;5488390;26;19999;-58
2024/04/12 13:37:06;;;;;;;13.98;11.15;;;;;;;;;;5479747;26;20003;-56
2024/04/12 13:39:35;;;;;;;14.23;11.40;;;;;;;;;;5475412;26;20319;-58
2024/04/12 13:42:03;;;;;;;16.83;11.37;;;;;;;;;;5477608;26;20014;-58
2024/04/12 13:52:47;;;;;;;14.05;9.98;;;;;;;;;;5490687;26;20571;-58
2024/04/12 13:55:16;;;;;;;14.13;9.95;;;;;;;;;;5488320;26;20002;-58
2024/04/12 13:57:43;;;;;;;15.75;10.98;;;;;;;;;;5487815;26;20017;-58
2024/04/12 14:00:25;;;;;;;13.80;10.73;;;;;;;;;;5487878;26;20342;-58
2024/04/12 14:02:58;;;;;;;13.95;10.25;;;;;;;;;;5480626;26;20002;-58
2024/04/12 14:05:27;;;;;;;12.48;9.85;;;;;;;;;;5478443;26;20025;-58
2024/04/12 14:07:58;;;;;;;18.17;11.77;;;;;;;;;;5468510;26;20010;-58
2024/04/12 14:10:24;;;;;;;14.82;11.55;;;;;;;;;;5472232;26;20045;-58
2024/04/12 14:12:52;;;;;;;16.73;10.70;;;;;;;;;;5473829;26;20002;-58
2024/04/12 14:15:19;;;;;;;14.60;11.23;;;;;;;;;;5487485;26;20002;-58
2024/04/12 14:17:51;;;;;;;13.70;10.05;;;;;;;;;;5476433;26;20010;-58
2024/04/12 14:20:20;;;;;;;16.17;8.88;;;;;;;;;;5473698;26;20055;-58
2024/04/12 14:22:49;;;;;;;14.90;10.77;;;;;;;;;;5486526;26;20349;-57
2024/04/12 14:25:15;;;;;;;13.85;9.55;;;;;;;;;;5475501;26;20028;-59
2024/04/12 14:27:46;;;;;;;12.20;9.63;;;;;;;;;;5466417;26;19998;-58
2024/04/12 14:30:15;;;;;;;11.90;9.02;;;;;;;;;;5479939;26;20002;-57
2024/04/12 14:32:50;;;;;;;10.48;7.97;;;;;;;;;;5469644;26;20002;-58
2024/04/12 14:35:20;;;;;;;12.68;9.25;;;;;;;;;;5471407;26;20017;-58
2024/04/12 14:37:49;;;;;;;12.65;9.52;;;;;;;;;;5469382;26;19999;-58
2024/04/12 14:40:19;;;;;;;11.63;10.03;;;;;;;;;;5470727;26;20024;-58
2024/04/12 14:42:48;;;;;;;14.15;10.27;;;;;;;;;;5474594;26;19999;-58
2024/04/12 14:45:14;;;;;;;14.33;10.20;;;;;;;;;;5475668;26;20008;-59
2024/04/12 14:47:43;;;;;;;12.30;8.90;;;;;;;;;;5474297;26;20229;-58
2024/04/12 14:50:10;;;;;;;12.50;8.70;;;;;;;;;;5479461;26;20017;-58
2024/04/12 14:52:43;;;;;;;12.93;9.40;;;;;;;;;;5476060;26;20450;-58
2024/04/12 14:55:12;;;;;;;14.40;9.07;;;;;;;;;;5474395;26;20002;-58
2024/04/12 14:57:46;;;;;;;11.82;9.50;;;;;;;;;;5477286;26;20017;-59
2024/04/12 15:00:14;;;;;;;14.43;10.93;;;;;;;;;;5472246;26;20002;-58
2024/04/12 15:49:21;;;;;;;11.55;9.68;;;;;;;;;;5489272;26;20395;-58
2024/04/12 15:51:51;;;;;;;11.85;9.90;;;;;;;;;;5486871;26;20009;-58
2024/04/12 15:54:21;;;;;;;;;;;;;;;;;;5486434;26;20026;-58
2024/04/12 16:10:49;;;;;;;11.75;8.80;;;;;;;;;;5492789;26;20013;-57
2024/04/12 16:13:21;;;;;;;12.02;9.82;;;;;;;;;;5489977;26;20021;-61
2024/04/12 16:15:50;;;;;;;10.30;8.55;;;;;;;;;;5490565;26;20046;-63
2024/04/12 16:18:19;;;;;;;9.98;8.60;;;;;;;;;;5489962;26;20002;-57
2024/04/12 16:20:47;;;;;;;11.93;9.88;;;;;;;;;;5489798;26;20013;-58
2024/04/12 16:23:16;;;;;;;11.82;8.73;;;;;;;;;;5489366;26;19994;-58
2024/04/12 16:25:45;;;;;;;10.02;8.15;;;;;;;;;;5489375;26;20549;-60
2024/04/12 16:28:11;;;;;;;13.03;8.43;;;;;;;;;;5489872;26;19998;-59
2024/04/12 16:30:43;;;;;;;13.48;8.73;;;;;;;;;;5489708;26;20322;-59
2024/04/12 16:33:09;;;;;;;10.77;8.35;;;;;;;;;;5489666;26;20104;-60
2024/04/12 16:35:39;;;;;;;12.07;8.43;;;;;;;;;;5489670;26;20322;-59
2024/04/12 16:38:04;;;;;;;;;;;;;;;;;;5490328;26;20446;-59
2024/04/12 16:40:34;;;;;;;11.98;8.75;;;;;;;;;;5489638;26;19923;-59
2024/04/12 16:43:00;;;;;;;11.27;8.50;;;;;;;;;;5489822;26;20010;-60
2024/04/12 16:45:28;;;;;;;10.48;7.93;;;;;;;;;;5489258;26;20012;-59
2024/04/12 16:47:59;;;;;;;13.80;9.80;;;;;;;;;;5489761;26;19994;-59
2024/04/12 16:50:28;;;;;;;14.95;10.70;;;;;;;;;;5489322;26;20041;-59
2024/04/12 16:52:55;;;;;;;12.40;9.63;;;;;;;;;;5489546;26;19998;-59
2024/04/12 16:55:24;;;;;;;11.93;8.95;;;;;;;;;;5489468;26;20001;-59
2024/04/12 16:57:50;;;;;;;16.60;10.27;;;;;;;;;;5489471;26;20070;-59
2024/04/12 17:00:18;;;;;;;12.75;9.88;;;;;;;;;;5489638;26;20453;-59
2024/04/12 17:02:44;;;;;;;14.63;9.93;;;;;;;;;;5489268;26;20453;-59
2024/04/12 17:05:19;;;;;;;12.70;9.55;;;;;;;;;;5489161;26;20024;-59